sensor_id;sensor_type;location;lat;lon;timestamp;pressure;altitude;pressure_sealevel;temperature;humidity
51452;BME280;37521;52.020;-1.740;2024-02-21T00:00:05;100158.34;;;6.59;100.00
51452;BME280;37521;52.020;-1.740;2024-02-21T00:02:34;100155.72;;;6.59;100.00
51452;BME280;37521;52.020;-1.740;2024-02-21T00:05:03;100138.28;;;6.58;100.00
51452;BME280;37521;52.020;-1.740;2024-02-21T00:07:33;100137.41;;;6.57;100.00
51452;BME280;37521;52.020;-1.740;2024-02-21T00:10:02;100124.34;;;6.55;100.00
51452;BME280;37521;52.020;-1.740;2024-02-21T00:12:32;100115.63;;;6.53;100.00
51452;BME280;37521;52.020;-1.740;2024-02-21T00:15:02;100105.25;;;6.50;100.00
51452;BME280;37521;52.020;-1.740;2024-02-21T00:17:31;100098.28;;;6.49;100.00
51452;BME280;37521;52.020;-1.740;2024-02-21T00:20:00;100099.22;;;6.47;100.00
51452;BME280;37521;52.020;-1.740;2024-02-21T00:22:30;100108.84;;;6.46;100.00
51452;BME280;37521;52.020;-1.740;2024-02-21T00:25:00;100105.41;;;6.44;100.00
51452;BME280;37521;52.020;-1.740;2024-02-21T00:27:29;100107.28;;;6.39;100.00
51452;BME280;37521;52.020;-1.740;2024-02-21T00:29:59;100099.44;;;6.39;100.00
51452;BME280;37521;52.020;-1.740;2024-02-21T00:32:28;100097.72;;;6.38;100.00
51452;BME280;37521;52.020;-1.740;2024-02-21T00:34:57;100098.63;;;6.37;100.00
51452;BME280;37521;52.020;-1.740;2024-02-21T00:37:26;100093.44;;;6.34;100.00
51452;BME280;37521;52.020;-1.740;2024-02-21T00:39:55;100091.81;;;6.30;100.00
51452;BME280;37521;52.020;-1.740;2024-02-21T00:42:24;100091.91;;;6.27;100.00
51452;BME280;37521;52.020;-1.740;2024-02-21T00:44:53;100082.41;;;6.23;100.00
51452;BME280;37521;52.020;-1.740;2024-02-21T00:47:23;100086.81;;;6.21;100.00
51452;BME280;37521;52.020;-1.740;2024-02-21T00:49:52;100078.13;;;6.19;100.00
51452;BME280;37521;52.020;-1.740;2024-02-21T00:52:21;100071.19;;;6.18;100.00
51452;BME280;37521;52.020;-1.740;2024-02-21T00:54:50;100067.75;;;6.16;100.00
51452;BME280;37521;52.020;-1.740;2024-02-21T00:57:21;100061.66;;;6.15;100.00
51452;BME280;37521;52.020;-1.740;2024-02-21T00:59:51;100057.38;;;6.11;100.00
51452;BME280;37521;52.020;-1.740;2024-02-21T01:02:19;100063.47;;;6.12;100.00
51452;BME280;37521;52.020;-1.740;2024-02-21T01:04:50;100055.63;;;6.12;100.00
51452;BME280;37521;52.020;-1.740;2024-02-21T01:07:19;100055.63;;;6.12;100.00
51452;BME280;37521;52.020;-1.740;2024-02-21T01:09:47;100040.78;;;6.11;100.00
51452;BME280;37521;52.020;-1.740;2024-02-21T01:12:18;100033.78;;;6.11;100.00
51452;BME280;37521;52.020;-1.740;2024-02-21T01:14:47;100027.69;;;6.11;100.00
51452;BME280;37521;52.020;-1.740;2024-02-21T01:17:16;100018.91;;;6.12;100.00
51452;BME280;37521;52.020;-1.740;2024-02-21T01:19:46;100008.44;;;6.12;100.00
51452;BME280;37521;52.020;-1.740;2024-02-21T01:22:16;100011.97;;;6.11;100.00
51452;BME280;37521;52.020;-1.740;2024-02-21T01:24:45;100005.00;;;6.10;100.00
51452;BME280;37521;52.020;-1.740;2024-02-21T01:27:14;99986.69;;;6.08;100.00
51452;BME280;37521;52.020;-1.740;2024-02-21T01:29:42;99983.19;;;6.09;100.00
51452;BME280;37521;52.020;-1.740;2024-02-21T01:32:13;99975.25;;;6.11;100.00
51452;BME280;37521;52.020;-1.740;2024-02-21T01:34:42;99968.31;;;6.10;100.00
51452;BME280;37521;52.020;-1.740;2024-02-21T01:37:11;99963.06;;;6.10;100.00
51452;BME280;37521;52.020;-1.740;2024-02-21T01:39:41;99962.16;;;6.11;100.00
51452;BME280;37521;52.020;-1.740;2024-02-21T01:42:10;99956.97;;;6.09;100.00
51452;BME280;37521;52.020;-1.740;2024-02-21T01:44:39;99945.63;;;6.09;100.00
51452;BME280;37521;52.020;-1.740;2024-02-21T01:47:10;99938.63;;;6.09;100.00
51452;BME280;37521;52.020;-1.740;2024-02-21T01:49:40;99947.34;;;6.08;100.00
51452;BME280;37521;52.020;-1.740;2024-02-21T01:52:11;99931.63;;;6.10;100.00
51452;BME280;37521;52.020;-1.740;2024-02-21T01:54:43;99929.00;;;6.10;100.00
51452;BME280;37521;52.020;-1.740;2024-02-21T01:57:13;99927.22;;;6.10;100.00
51452;BME280;37521;52.020;-1.740;2024-02-21T01:59:42;99922.84;;;6.11;100.00
51452;BME280;37521;52.020;-1.740;2024-02-21T02:02:11;99912.34;;;6.11;100.00
51452;BME280;37521;52.020;-1.740;2024-02-21T02:04:40;99909.69;;;6.12;100.00
51452;BME280;37521;52.020;-1.740;2024-02-21T02:07:09;99896.53;;;6.14;100.00
51452;BME280;37521;52.020;-1.740;2024-02-21T02:09:38;99895.66;;;6.13;100.00
51452;BME280;37521;52.020;-1.740;2024-02-21T02:12:09;99883.41;;;6.14;100.00
51452;BME280;37521;52.020;-1.740;2024-02-21T02:14:38;99891.19;;;6.17;100.00
51452;BME280;37521;52.020;-1.740;2024-02-21T02:17:06;99883.28;;;6.18;100.00
51452;BME280;37521;52.020;-1.740;2024-02-21T02:19:36;99879.75;;;6.19;100.00
51452;BME280;37521;52.020;-1.740;2024-02-21T02:22:09;99882.31;;;6.21;100.00
51452;BME280;37521;52.020;-1.740;2024-02-21T02:24:42;99870.91;;;6.23;100.00
51452;BME280;37521;52.020;-1.740;2024-02-21T02:27:11;99866.50;;;6.24;100.00
51452;BME280;37521;52.020;-1.740;2024-02-21T02:29:39;99862.13;;;6.24;100.00
51452;BME280;37521;52.020;-1.740;2024-02-21T02:32:08;99857.75;;;6.25;100.00
51452;BME280;37521;52.020;-1.740;2024-02-21T02:34:37;99856.03;;;6.24;100.00
51452;BME280;37521;52.020;-1.740;2024-02-21T02:37:06;99848.97;;;6.26;100.00
51452;BME280;37521;52.020;-1.740;2024-02-21T02:39:35;99844.56;;;6.26;100.00
51452;BME280;37521;52.020;-1.740;2024-02-21T02:42:05;99840.28;;;6.24;100.00
51452;BME280;37521;52.020;-1.740;2024-02-21T02:44:34;99833.34;;;6.23;100.00
51452;BME280;37521;52.020;-1.740;2024-02-21T02:47:03;99829.81;;;6.24;100.00
51452;BME280;37521;52.020;-1.740;2024-02-21T02:49:32;99822.00;;;6.22;100.00
51452;BME280;37521;52.020;-1.740;2024-02-21T02:52:01;99811.59;;;6.19;100.00
51452;BME280;37521;52.020;-1.740;2024-02-21T02:54:30;99808.16;;;6.17;100.00
51452;BME280;37521;52.020;-1.740;2024-02-21T02:56:58;99805.59;;;6.16;100.00
51452;BME280;37521;52.020;-1.740;2024-02-21T02:59:29;99803.84;;;6.15;100.00
51452;BME280;37521;52.020;-1.740;2024-02-21T03:01:57;99792.69;;;6.10;100.00
51452;BME280;37521;52.020;-1.740;2024-02-21T03:04:26;99785.75;;;6.07;100.00
51452;BME280;37521;52.020;-1.740;2024-02-21T03:06:55;99789.34;;;6.05;100.00
51452;BME280;37521;52.020;-1.740;2024-02-21T03:09:24;99767.59;;;6.03;100.00
51452;BME280;37521;52.020;-1.740;2024-02-21T03:11:52;99767.59;;;6.03;100.00
51452;BME280;37521;52.020;-1.740;2024-02-21T03:14:24;99760.59;;;6.01;100.00
51452;BME280;37521;52.020;-1.740;2024-02-21T03:16:54;99761.50;;;6.00;100.00
51452;BME280;37521;52.020;-1.740;2024-02-21T03:19:23;99749.31;;;5.99;100.00
51452;BME280;37521;52.020;-1.740;2024-02-21T03:21:53;99748.50;;;5.97;100.00
51452;BME280;37521;52.020;-1.740;2024-02-21T03:24:21;99727.63;;;5.94;100.00
51452;BME280;37521;52.020;-1.740;2024-02-21T03:26:50;99724.22;;;5.92;100.00
51452;BME280;37521;52.020;-1.740;2024-02-21T03:29:19;99729.53;;;5.89;100.00
51452;BME280;37521;52.020;-1.740;2024-02-21T03:31:48;99721.69;;;5.88;100.00
51452;BME280;37521;52.020;-1.740;2024-02-21T03:34:18;99712.19;;;5.85;100.00
51452;BME280;37521;52.020;-1.740;2024-02-21T03:36:47;99702.63;;;5.84;100.00
51452;BME280;37521;52.020;-1.740;2024-02-21T03:39:16;99688.72;;;5.82;100.00
51452;BME280;37521;52.020;-1.740;2024-02-21T03:41:44;99686.19;;;5.79;100.00
51452;BME280;37521;52.020;-1.740;2024-02-21T03:44:13;99677.50;;;5.77;100.00
51452;BME280;37521;52.020;-1.740;2024-02-21T03:46:42;99671.50;;;5.73;100.00
51452;BME280;37521;52.020;-1.740;2024-02-21T03:49:11;99671.56;;;5.72;100.00
51452;BME280;37521;52.020;-1.740;2024-02-21T03:51:41;99656.81;;;5.69;100.00
51452;BME280;37521;52.020;-1.740;2024-02-21T03:54:11;99646.34;;;5.68;100.00
51452;BME280;37521;52.020;-1.740;2024-02-21T03:56:40;99648.97;;;5.68;100.00
51452;BME280;37521;52.020;-1.740;2024-02-21T03:59:09;99642.03;;;5.67;100.00
51452;BME280;37521;52.020;-1.740;2024-02-21T04:01:38;99637.69;;;5.66;100.00
51452;BME280;37521;52.020;-1.740;2024-02-21T04:04:07;99632.41;;;5.67;100.00
51452;BME280;37521;52.020;-1.740;2024-02-21T04:06:36;99638.50;;;5.68;100.00
51452;BME280;37521;52.020;-1.740;2024-02-21T04:09:06;99632.38;;;5.69;100.00
51452;BME280;37521;52.020;-1.740;2024-02-21T04:11:35;99621.06;;;5.68;100.00
51452;BME280;37521;52.020;-1.740;2024-02-21T04:14:04;99607.13;;;5.66;100.00
51452;BME280;37521;52.020;-1.740;2024-02-21T04:16:33;99596.72;;;5.65;100.00
51452;BME280;37521;52.020;-1.740;2024-02-21T04:19:01;99596.75;;;5.63;100.00
51452;BME280;37521;52.020;-1.740;2024-02-21T04:21:30;99602.00;;;5.63;100.00
51452;BME280;37521;52.020;-1.740;2024-02-21T04:23:59;99588.97;;;5.62;100.00
51452;BME280;37521;52.020;-1.740;2024-02-21T04:26:30;99579.38;;;5.61;100.00
51452;BME280;37521;52.020;-1.740;2024-02-21T04:28:59;99554.91;;;5.62;100.00
51452;BME280;37521;52.020;-1.740;2024-02-21T04:31:29;99555.78;;;5.61;100.00
51452;BME280;37521;52.020;-1.740;2024-02-21T04:33:57;99544.53;;;5.59;100.00
51452;BME280;37521;52.020;-1.740;2024-02-21T04:36:26;99547.25;;;5.56;100.00
51452;BME280;37521;52.020;-1.740;2024-02-21T04:38:55;99556.00;;;5.55;100.00
51452;BME280;37521;52.020;-1.740;2024-02-21T04:41:24;99562.25;;;5.51;100.00
51452;BME280;37521;52.020;-1.740;2024-02-21T04:43:54;99552.69;;;5.50;100.00
51452;BME280;37521;52.020;-1.740;2024-02-21T04:46:23;99540.53;;;5.49;100.00
51452;BME280;37521;52.020;-1.740;2024-02-21T04:48:52;99533.53;;;5.47;100.00
51452;BME280;37521;52.020;-1.740;2024-02-21T04:51:20;99523.94;;;5.48;100.00
51452;BME280;37521;52.020;-1.740;2024-02-21T04:53:50;99505.59;;;5.48;100.00
51452;BME280;37521;52.020;-1.740;2024-02-21T04:56:19;99501.28;;;5.47;100.00
51452;BME280;37521;52.020;-1.740;2024-02-21T04:58:48;99492.63;;;5.45;100.00
51452;BME280;37521;52.020;-1.740;2024-02-21T05:01:18;99486.53;;;5.44;100.00
51452;BME280;37521;52.020;-1.740;2024-02-21T05:03:47;99475.22;;;5.44;100.00
51452;BME280;37521;52.020;-1.740;2024-02-21T05:06:16;99467.41;;;5.42;100.00
51452;BME280;37521;52.020;-1.740;2024-02-21T05:08:44;99453.47;;;5.42;100.00
51452;BME280;37521;52.020;-1.740;2024-02-21T05:11:13;99460.34;;;5.44;100.00
51452;BME280;37521;52.020;-1.740;2024-02-21T05:13:42;99454.25;;;5.44;100.00
51452;BME280;37521;52.020;-1.740;2024-02-21T05:16:11;99436.78;;;5.44;100.00
51452;BME280;37521;52.020;-1.740;2024-02-21T05:18:41;99429.78;;;5.45;100.00
51452;BME280;37521;52.020;-1.740;2024-02-21T05:21:11;99430.63;;;5.45;100.00
51452;BME280;37521;52.020;-1.740;2024-02-21T05:23:39;99414.00;;;5.46;100.00
51452;BME280;37521;52.020;-1.740;2024-02-21T05:26:09;99411.34;;;5.48;100.00
51452;BME280;37521;52.020;-1.740;2024-02-21T05:28:38;99406.06;;;5.50;100.00
51452;BME280;37521;52.020;-1.740;2024-02-21T05:31:06;99408.63;;;5.51;100.00
51452;BME280;37521;52.020;-1.740;2024-02-21T05:33:35;99386.69;;;5.54;100.00
51452;BME280;37521;52.020;-1.740;2024-02-21T05:36:06;99387.56;;;5.54;100.00
51452;BME280;37521;52.020;-1.740;2024-02-21T05:38:35;99387.47;;;5.57;100.00
51452;BME280;37521;52.020;-1.740;2024-02-21T05:41:05;99367.31;;;5.59;100.00
51452;BME280;37521;52.020;-1.740;2024-02-21T05:43:38;99356.81;;;5.59;100.00
51452;BME280;37521;52.020;-1.740;2024-02-21T05:46:06;99348.06;;;5.60;100.00
51452;BME280;37521;52.020;-1.740;2024-02-21T05:48:35;99344.53;;;5.61;100.00
51452;BME280;37521;52.020;-1.740;2024-02-21T05:51:07;99340.16;;;5.62;100.00
51452;BME280;37521;52.020;-1.740;2024-02-21T05:53:36;99327.09;;;5.60;100.00
51452;BME280;37521;52.020;-1.740;2024-02-21T05:56:10;99314.88;;;5.61;100.00
51452;BME280;37521;52.020;-1.740;2024-02-21T05:58:40;99301.78;;;5.61;100.00
51452;BME280;37521;52.020;-1.740;2024-02-21T06:01:09;99299.16;;;5.61;100.00
51452;BME280;37521;52.020;-1.740;2024-02-21T06:03:38;99284.28;;;5.61;100.00
51452;BME280;37521;52.020;-1.740;2024-02-21T06:06:08;99276.41;;;5.63;100.00
51452;BME280;37521;52.020;-1.740;2024-02-21T06:08:37;99279.94;;;5.62;100.00
51452;BME280;37521;52.020;-1.740;2024-02-21T06:11:07;99269.47;;;5.62;100.00
51452;BME280;37521;52.020;-1.740;2024-02-21T06:13:38;99265.94;;;5.63;100.00
51452;BME280;37521;52.020;-1.740;2024-02-21T06:16:07;99253.75;;;5.62;100.00
51452;BME280;37521;52.020;-1.740;2024-02-21T06:18:36;99250.22;;;5.63;100.00
51452;BME280;37521;52.020;-1.740;2024-02-21T06:21:05;99252.84;;;5.63;100.00
51452;BME280;37521;52.020;-1.740;2024-02-21T06:23:36;99252.75;;;5.64;100.00
51452;BME280;37521;52.020;-1.740;2024-02-21T06:26:05;99246.69;;;5.64;100.00
51452;BME280;37521;52.020;-1.740;2024-02-21T06:28:34;99226.56;;;5.64;100.00
51452;BME280;37521;52.020;-1.740;2024-02-21T06:31:03;99221.28;;;5.66;100.00
51452;BME280;37521;52.020;-1.740;2024-02-21T06:33:32;99209.09;;;5.65;100.00
51452;BME280;37521;52.020;-1.740;2024-02-21T06:36:01;99208.19;;;5.66;100.00
51452;BME280;37521;52.020;-1.740;2024-02-21T06:38:29;99197.69;;;5.66;100.00
51452;BME280;37521;52.020;-1.740;2024-02-21T06:41:00;99188.06;;;5.66;100.00
51452;BME280;37521;52.020;-1.740;2024-02-21T06:43:30;99191.53;;;5.67;100.00
51452;BME280;37521;52.020;-1.740;2024-02-21T06:45:59;99176.66;;;5.69;100.00
51452;BME280;37521;52.020;-1.740;2024-02-21T06:48:27;99164.44;;;5.68;100.00
51452;BME280;37521;52.020;-1.740;2024-02-21T06:50:56;99154.84;;;5.68;100.00
51452;BME280;37521;52.020;-1.740;2024-02-21T06:53:25;99148.69;;;5.69;100.00
51452;BME280;37521;52.020;-1.740;2024-02-21T06:55:54;99150.47;;;5.69;100.00
51452;BME280;37521;52.020;-1.740;2024-02-21T06:58:24;99144.31;;;5.70;100.00
51452;BME280;37521;52.020;-1.740;2024-02-21T07:00:53;99142.53;;;5.70;100.00
51452;BME280;37521;52.020;-1.740;2024-02-21T07:03:22;99152.03;;;5.73;100.00
51452;BME280;37521;52.020;-1.740;2024-02-21T07:05:51;99128.44;;;5.73;100.00
51452;BME280;37521;52.020;-1.740;2024-02-21T07:08:20;99131.00;;;5.74;100.00
51452;BME280;37521;52.020;-1.740;2024-02-21T07:10:49;99104.81;;;5.74;100.00
51452;BME280;37521;52.020;-1.740;2024-02-21T07:13:18;99093.44;;;5.76;100.00
51452;BME280;37521;52.020;-1.740;2024-02-21T07:15:50;99085.59;;;5.76;100.00
51452;BME280;37521;52.020;-1.740;2024-02-21T07:18:19;99083.75;;;5.78;100.00
51452;BME280;37521;52.020;-1.740;2024-02-21T07:20:48;99076.72;;;5.78;100.00
51452;BME280;37521;52.020;-1.740;2024-02-21T07:23:17;99075.88;;;5.78;100.00
51452;BME280;37521;52.020;-1.740;2024-02-21T07:25:45;99057.47;;;5.79;100.00
51452;BME280;37521;52.020;-1.740;2024-02-21T07:28:14;99052.25;;;5.79;100.00
51452;BME280;37521;52.020;-1.740;2024-02-21T07:30:44;99044.38;;;5.79;100.00
51452;BME280;37521;52.020;-1.740;2024-02-21T07:33:14;99040.84;;;5.80;100.00
51452;BME280;37521;52.020;-1.740;2024-02-21T07:35:43;99036.41;;;5.82;100.00
51452;BME280;37521;52.020;-1.740;2024-02-21T07:38:12;99018.91;;;5.83;100.00
51452;BME280;37521;52.020;-1.740;2024-02-21T07:40:41;99020.53;;;5.85;100.00
51452;BME280;37521;52.020;-1.740;2024-02-21T07:43:11;99012.53;;;5.88;100.00
51452;BME280;37521;52.020;-1.740;2024-02-21T07:45:40;99001.16;;;5.89;100.00
51452;BME280;37521;52.020;-1.740;2024-02-21T07:48:09;98994.97;;;5.92;100.00
51452;BME280;37521;52.020;-1.740;2024-02-21T07:50:39;98989.66;;;5.93;100.00
51452;BME280;37521;52.020;-1.740;2024-02-21T07:53:08;98994.91;;;5.93;100.00
51452;BME280;37521;52.020;-1.740;2024-02-21T07:55:37;98983.44;;;5.96;100.00
51452;BME280;37521;52.020;-1.740;2024-02-21T07:58:06;98971.19;;;5.96;100.00
51452;BME280;37521;52.020;-1.740;2024-02-21T08:00:35;98974.59;;;5.98;100.00
51452;BME280;37521;52.020;-1.740;2024-02-21T08:03:04;98950.09;;;5.99;100.00
51452;BME280;37521;52.020;-1.740;2024-02-21T08:05:34;98953.47;;;6.01;100.00
51452;BME280;37521;52.020;-1.740;2024-02-21T08:08:05;98948.22;;;6.01;100.00
51452;BME280;37521;52.020;-1.740;2024-02-21T08:10:35;98942.03;;;6.04;100.00
51452;BME280;37521;52.020;-1.740;2024-02-21T08:13:03;98935.00;;;6.05;100.00
51452;BME280;37521;52.020;-1.740;2024-02-21T08:15:33;98931.41;;;6.07;100.00
51452;BME280;37521;52.020;-1.740;2024-02-21T08:18:02;98928.72;;;6.09;100.00
51452;BME280;37521;52.020;-1.740;2024-02-21T08:20:31;98933.91;;;6.10;100.00
51452;BME280;37521;52.020;-1.740;2024-02-21T08:23:00;98916.41;;;6.11;100.00
51452;BME280;37521;52.020;-1.740;2024-02-21T08:25:31;98925.19;;;6.10;100.00
51452;BME280;37521;52.020;-1.740;2024-02-21T08:28:00;98911.16;;;6.11;100.00
51452;BME280;37521;52.020;-1.740;2024-02-21T08:30:29;98909.38;;;6.11;100.00
51452;BME280;37521;52.020;-1.740;2024-02-21T08:32:58;98896.28;;;6.11;100.00
51452;BME280;37521;52.020;-1.740;2024-02-21T08:35:27;98893.66;;;6.11;100.00
51452;BME280;37521;52.020;-1.740;2024-02-21T08:37:56;98894.59;;;6.10;100.00
51452;BME280;37521;52.020;-1.740;2024-02-21T08:40:25;98897.13;;;6.12;100.00
51452;BME280;37521;52.020;-1.740;2024-02-21T08:42:55;98883.03;;;6.14;100.00
51452;BME280;37521;52.020;-1.740;2024-02-21T08:45:24;98869.06;;;6.14;100.00
51452;BME280;37521;52.020;-1.740;2024-02-21T08:47:53;98867.28;;;6.14;100.00
51452;BME280;37521;52.020;-1.740;2024-02-21T08:50:22;98863.81;;;6.14;100.00
51452;BME280;37521;52.020;-1.740;2024-02-21T08:52:55;98855.91;;;6.15;100.00
51452;BME280;37521;52.020;-1.740;2024-02-21T08:55:25;98848.09;;;6.14;100.00
51452;BME280;37521;52.020;-1.740;2024-02-21T08:57:55;98839.31;;;6.15;100.00
51452;BME280;37521;52.020;-1.740;2024-02-21T09:00:24;98843.78;;;6.13;100.00
51452;BME280;37521;52.020;-1.740;2024-02-21T09:02:55;98843.03;;;6.11;100.00
51452;BME280;37521;52.020;-1.740;2024-02-21T09:05:24;98827.28;;;6.11;100.00
51452;BME280;37521;52.020;-1.740;2024-02-21T09:07:53;98826.38;;;6.12;100.00
51452;BME280;37521;52.020;-1.740;2024-02-21T09:10:22;98816.66;;;6.14;100.00
51452;BME280;37521;52.020;-1.740;2024-02-21T09:12:51;98809.72;;;6.13;100.00
51452;BME280;37521;52.020;-1.740;2024-02-21T09:15:21;98804.47;;;6.13;100.00
51452;BME280;37521;52.020;-1.740;2024-02-21T09:17:51;98780.88;;;6.13;100.00
51452;BME280;37521;52.020;-1.740;2024-02-21T09:20:20;98776.41;;;6.15;100.00
51452;BME280;37521;52.020;-1.740;2024-02-21T09:22:49;98770.31;;;6.14;100.00
51452;BME280;37521;52.020;-1.740;2024-02-21T09:25:19;98747.59;;;6.15;100.00
51452;BME280;37521;52.020;-1.740;2024-02-21T09:27:48;98757.19;;;6.16;100.00
51452;BME280;37521;52.020;-1.740;2024-02-21T09:30:19;98746.63;;;6.17;100.00
51452;BME280;37521;52.020;-1.740;2024-02-21T09:32:49;98726.56;;;6.16;100.00
51452;BME280;37521;52.020;-1.740;2024-02-21T09:35:18;98727.41;;;6.17;100.00
51452;BME280;37521;52.020;-1.740;2024-02-21T09:37:46;98731.72;;;6.18;100.00
51452;BME280;37521;52.020;-1.740;2024-02-21T09:40:16;98725.56;;;6.19;100.00
51452;BME280;37521;52.020;-1.740;2024-02-21T09:42:47;98719.47;;;6.18;100.00
51452;BME280;37521;52.020;-1.740;2024-02-21T09:45:20;98703.66;;;6.20;100.00
51452;BME280;37521;52.020;-1.740;2024-02-21T09:48:15;98681.00;;;6.19;100.00
51452;BME280;37521;52.020;-1.740;2024-02-21T09:50:47;98685.31;;;6.20;100.00
51452;BME280;37521;52.020;-1.740;2024-02-21T09:53:18;98679.22;;;6.19;100.00
51452;BME280;37521;52.020;-1.740;2024-02-21T09:55:48;98666.03;;;6.21;100.00
51452;BME280;37521;52.020;-1.740;2024-02-21T09:58:17;98649.47;;;6.20;100.00
51452;BME280;37521;52.020;-1.740;2024-02-21T10:00:46;98645.94;;;6.21;100.00
51452;BME280;37521;52.020;-1.740;2024-02-21T10:03:16;98635.44;;;6.21;100.00
51452;BME280;37521;52.020;-1.740;2024-02-21T10:05:48;98625.66;;;6.25;100.00
51452;BME280;37521;52.020;-1.740;2024-02-21T10:08:19;98615.84;;;6.28;100.00
51452;BME280;37521;52.020;-1.740;2024-02-21T10:10:48;98627.22;;;6.29;100.00
51452;BME280;37521;52.020;-1.740;2024-02-21T10:13:25;98614.69;;;6.34;100.00
51452;BME280;37521;52.020;-1.740;2024-02-21T10:16:05;98606.78;;;6.36;100.00
51452;BME280;37521;52.020;-1.740;2024-02-21T10:18:36;98611.84;;;6.39;100.00
51452;BME280;37521;52.020;-1.740;2024-02-21T10:21:06;98588.25;;;6.39;100.00
51452;BME280;37521;52.020;-1.740;2024-02-21T10:23:44;98590.88;;;6.39;100.00
51452;BME280;37521;52.020;-1.740;2024-02-21T10:26:14;98564.56;;;6.40;100.00
51452;BME280;37521;52.020;-1.740;2024-02-21T10:28:43;98583.09;;;6.37;100.00
51452;BME280;37521;52.020;-1.740;2024-02-21T10:31:22;98573.38;;;6.39;100.00
51452;BME280;37521;52.020;-1.740;2024-02-21T10:33:57;98562.81;;;6.41;100.00
51452;BME280;37521;52.020;-1.740;2024-02-21T10:36:26;98546.91;;;6.44;100.00
51452;BME280;37521;52.020;-1.740;2024-02-21T10:38:55;98545.06;;;6.46;100.00
51452;BME280;37521;52.020;-1.740;2024-02-21T10:41:24;98541.41;;;6.48;100.00
51452;BME280;37521;52.020;-1.740;2024-02-21T10:43:55;98536.97;;;6.50;100.00
51452;BME280;37521;52.020;-1.740;2024-02-21T10:46:25;98527.41;;;6.49;100.00
51452;BME280;37521;52.020;-1.740;2024-02-21T10:49:02;98528.91;;;6.53;100.00
51452;BME280;37521;52.020;-1.740;2024-02-21T10:51:34;98514.03;;;6.54;100.00
51452;BME280;37521;52.020;-1.740;2024-02-21T10:54:16;98503.38;;;6.57;100.00
51452;BME280;37521;52.020;-1.740;2024-02-21T10:56:51;98510.94;;;6.63;100.00
51452;BME280;37521;52.020;-1.740;2024-02-21T10:59:21;98499.25;;;6.69;100.00
51452;BME280;37521;52.020;-1.740;2024-02-21T11:01:53;98495.72;;;6.70;100.00
51452;BME280;37521;52.020;-1.740;2024-02-21T11:04:28;98481.47;;;6.74;100.00
51452;BME280;37521;52.020;-1.740;2024-02-21T11:07:00;98485.53;;;6.79;100.00
51452;BME280;37521;52.020;-1.740;2024-02-21T11:09:36;98481.63;;;6.87;100.00
51452;BME280;37521;52.020;-1.740;2024-02-21T11:12:05;98467.53;;;6.89;100.00
51452;BME280;37521;52.020;-1.740;2024-02-21T11:14:38;98454.03;;;6.95;100.00
51452;BME280;37521;52.020;-1.740;2024-02-21T11:17:15;98459.13;;;6.98;100.00
51452;BME280;37521;52.020;-1.740;2024-02-21T11:19:46;98444.91;;;7.02;100.00
51452;BME280;37521;52.020;-1.740;2024-02-21T11:22:16;98461.66;;;7.00;100.00
51452;BME280;37521;52.020;-1.740;2024-02-21T11:24:45;98439.66;;;7.02;100.00
51452;BME280;37521;52.020;-1.740;2024-02-21T11:27:15;98438.72;;;7.03;100.00
51452;BME280;37521;52.020;-1.740;2024-02-21T11:29:45;98439.47;;;7.05;100.00
51452;BME280;37521;52.020;-1.740;2024-02-21T11:32:15;98421.19;;;7.04;100.00
51452;BME280;37521;52.020;-1.740;2024-02-21T11:34:55;98409.84;;;7.03;100.00
51452;BME280;37521;52.020;-1.740;2024-02-21T11:37:25;98393.09;;;7.06;100.00
51452;BME280;37521;52.020;-1.740;2024-02-21T11:39:55;98385.31;;;7.04;100.00
51452;BME280;37521;52.020;-1.740;2024-02-21T11:42:25;98386.72;;;7.10;100.00
51452;BME280;37521;52.020;-1.740;2024-02-21T11:44:54;98389.06;;;7.15;100.00
51452;BME280;37521;52.020;-1.740;2024-02-21T11:47:24;98382.25;;;7.26;100.00
51452;BME280;37521;52.020;-1.740;2024-02-21T11:49:55;98359.38;;;7.28;100.00
51452;BME280;37521;52.020;-1.740;2024-02-21T11:52:25;98357.63;;;7.29;100.00
51452;BME280;37521;52.020;-1.740;2024-02-21T11:54:55;98353.50;;;7.25;100.00
51452;BME280;37521;52.020;-1.740;2024-02-21T11:57:32;98358.00;;;7.23;100.00
51452;BME280;37521;52.020;-1.740;2024-02-21T12:00:12;98346.72;;;7.21;100.00
51452;BME280;37521;52.020;-1.740;2024-02-21T12:02:42;98352.91;;;7.20;100.00
51452;BME280;37521;52.020;-1.740;2024-02-21T12:05:13;98350.19;;;7.21;100.00
51452;BME280;37521;52.020;-1.740;2024-02-21T12:07:42;98360.63;;;7.23;100.00
51452;BME280;37521;52.020;-1.740;2024-02-21T12:10:12;98335.47;;;7.19;100.00
51452;BME280;37521;52.020;-1.740;2024-02-21T12:12:41;98322.59;;;7.14;100.00
51452;BME280;37521;52.020;-1.740;2024-02-21T12:15:10;98315.56;;;7.15;100.00
51452;BME280;37521;52.020;-1.740;2024-02-21T12:17:40;98306.84;;;7.14;100.00
51452;BME280;37521;52.020;-1.740;2024-02-21T12:20:09;98304.06;;;7.17;100.00
51452;BME280;37521;52.020;-1.740;2024-02-21T12:22:41;98287.56;;;7.15;100.00
51452;BME280;37521;52.020;-1.740;2024-02-21T12:25:17;98284.94;;;7.15;100.00
51452;BME280;37521;52.020;-1.740;2024-02-21T12:27:47;98268.34;;;7.15;100.00
51452;BME280;37521;52.020;-1.740;2024-02-21T12:30:16;98249.78;;;7.18;100.00
51452;BME280;37521;52.020;-1.740;2024-02-21T12:32:45;98222.34;;;7.23;100.00
51452;BME280;37521;52.020;-1.740;2024-02-21T12:35:16;98221.03;;;7.30;100.00
51452;BME280;37521;52.020;-1.740;2024-02-21T12:37:46;98218.00;;;7.36;100.00
51452;BME280;37521;52.020;-1.740;2024-02-21T12:40:15;98210.03;;;7.38;100.00
51452;BME280;37521;52.020;-1.740;2024-02-21T12:42:45;98205.53;;;7.40;100.00
51452;BME280;37521;52.020;-1.740;2024-02-21T12:45:14;98207.03;;;7.44;100.00
51452;BME280;37521;52.020;-1.740;2024-02-21T12:47:43;98193.81;;;7.46;100.00
51452;BME280;37521;52.020;-1.740;2024-02-21T12:50:12;98183.19;;;7.47;100.00
51452;BME280;37521;52.020;-1.740;2024-02-21T12:52:42;98186.19;;;7.55;100.00
51452;BME280;37521;52.020;-1.740;2024-02-21T12:55:13;98181.38;;;7.62;100.00
51452;BME280;37521;52.020;-1.740;2024-02-21T12:57:42;98182.25;;;7.62;100.00
51452;BME280;37521;52.020;-1.740;2024-02-21T13:00:12;98174.16;;;7.65;100.00